sensor_id;sensor_type;location;lat;lon;timestamp;P1;durP1;ratioP1;P2;durP2;ratioP2
7901;SDS011;3996;49.674;10.716;2023-02-03T00:00:37;6.83;;;4.40;;
7901;SDS011;3996;49.674;10.716;2023-02-03T00:03:03;6.33;;;3.80;;
7901;SDS011;3996;49.674;10.716;2023-02-03T00:05:29;7.13;;;4.33;;
7901;SDS011;3996;49.674;10.716;2023-02-03T00:07:55;8.73;;;4.20;;
7901;SDS011;3996;49.674;10.716;2023-02-03T00:10:21;6.10;;;4.07;;
7901;SDS011;3996;49.674;10.716;2023-02-03T00:12:48;8.17;;;3.83;;
7901;SDS011;3996;49.674;10.716;2023-02-03T00:15:15;7.27;;;4.07;;
7901;SDS011;3996;49.674;10.716;2023-02-03T00:17:41;5.60;;;4.50;;
7901;SDS011;3996;49.674;10.716;2023-02-03T00:20:06;6.87;;;4.90;;
7901;SDS011;3996;49.674;10.716;2023-02-03T00:22:32;5.53;;;3.80;;
7901;SDS011;3996;49.674;10.716;2023-02-03T00:24:58;7.53;;;3.80;;
7901;SDS011;3996;49.674;10.716;2023-02-03T00:27:24;6.07;;;4.17;;
7901;SDS011;3996;49.674;10.716;2023-02-03T00:29:50;7.53;;;4.47;;
7901;SDS011;3996;49.674;10.716;2023-02-03T00:32:15;8.27;;;4.60;;
7901;SDS011;3996;49.674;10.716;2023-02-03T00:34:41;6.50;;;4.47;;
7901;SDS011;3996;49.674;10.716;2023-02-03T00:37:06;7.10;;;4.83;;
7901;SDS011;3996;49.674;10.716;2023-02-03T00:39:34;7.23;;;4.27;;
7901;SDS011;3996;49.674;10.716;2023-02-03T00:42:02;6.97;;;4.77;;
7901;SDS011;3996;49.674;10.716;2023-02-03T00:44:28;5.53;;;4.43;;
7901;SDS011;3996;49.674;10.716;2023-02-03T00:46:53;9.60;;;4.90;;
7901;SDS011;3996;49.674;10.716;2023-02-03T00:49:19;6.90;;;4.40;;
7901;SDS011;3996;49.674;10.716;2023-02-03T00:51:44;8.47;;;4.90;;
7901;SDS011;3996;49.674;10.716;2023-02-03T00:54:10;7.60;;;4.63;;
7901;SDS011;3996;49.674;10.716;2023-02-03T00:56:37;6.80;;;4.53;;
7901;SDS011;3996;49.674;10.716;2023-02-03T00:59:03;9.77;;;5.10;;
7901;SDS011;3996;49.674;10.716;2023-02-03T01:01:29;8.80;;;4.77;;
7901;SDS011;3996;49.674;10.716;2023-02-03T01:03:55;11.13;;;4.97;;
7901;SDS011;3996;49.674;10.716;2023-02-03T01:06:20;8.90;;;5.43;;
7901;SDS011;3996;49.674;10.716;2023-02-03T01:08:46;9.23;;;5.10;;
7901;SDS011;3996;49.674;10.716;2023-02-03T01:11:13;7.67;;;5.27;;
7901;SDS011;3996;49.674;10.716;2023-02-03T01:13:41;7.70;;;5.50;;
7901;SDS011;3996;49.674;10.716;2023-02-03T01:16:08;10.67;;;5.57;;
7901;SDS011;3996;49.674;10.716;2023-02-03T01:18:35;8.13;;;5.90;;
7901;SDS011;3996;49.674;10.716;2023-02-03T01:21:04;7.80;;;5.60;;
7901;SDS011;3996;49.674;10.716;2023-02-03T01:23:37;8.67;;;5.50;;
7901;SDS011;3996;49.674;10.716;2023-02-03T01:26:04;8.70;;;5.60;;
7901;SDS011;3996;49.674;10.716;2023-02-03T01:28:31;8.83;;;5.70;;
7901;SDS011;3996;49.674;10.716;2023-02-03T01:30:57;7.60;;;5.63;;
7901;SDS011;3996;49.674;10.716;2023-02-03T01:33:42;12.03;;;6.23;;
7901;SDS011;3996;49.674;10.716;2023-02-03T01:36:12;7.77;;;5.00;;
7901;SDS011;3996;49.674;10.716;2023-02-03T01:38:41;8.97;;;5.60;;
7901;SDS011;3996;49.674;10.716;2023-02-03T01:41:09;10.97;;;5.73;;
7901;SDS011;3996;49.674;10.716;2023-02-03T01:43:40;9.00;;;5.57;;
7901;SDS011;3996;49.674;10.716;2023-02-03T01:49:11;9.00;;;5.77;;
7901;SDS011;3996;49.674;10.716;2023-02-03T01:51:42;8.00;;;5.53;;
7901;SDS011;3996;49.674;10.716;2023-02-03T01:54:11;10.47;;;5.83;;
7901;SDS011;3996;49.674;10.716;2023-02-03T01:56:41;10.17;;;6.33;;
7901;SDS011;3996;49.674;10.716;2023-02-03T01:59:10;12.93;;;5.83;;
7901;SDS011;3996;49.674;10.716;2023-02-03T02:01:39;8.87;;;5.77;;
7901;SDS011;3996;49.674;10.716;2023-02-03T02:04:04;8.23;;;5.47;;
7901;SDS011;3996;49.674;10.716;2023-02-03T02:06:30;9.70;;;5.57;;
7901;SDS011;3996;49.674;10.716;2023-02-03T02:08:56;9.67;;;5.57;;
7901;SDS011;3996;49.674;10.716;2023-02-03T02:11:24;14.83;;;6.00;;
7901;SDS011;3996;49.674;10.716;2023-02-03T02:13:51;9.20;;;5.47;;
7901;SDS011;3996;49.674;10.716;2023-02-03T02:16:23;10.07;;;5.50;;
7901;SDS011;3996;49.674;10.716;2023-02-03T02:22:16;10.03;;;5.53;;
7901;SDS011;3996;49.674;10.716;2023-02-03T02:27:41;7.53;;;5.27;;
7901;SDS011;3996;49.674;10.716;2023-02-03T02:38:44;10.60;;;5.93;;
7901;SDS011;3996;49.674;10.716;2023-02-03T02:41:22;11.03;;;6.17;;
7901;SDS011;3996;49.674;10.716;2023-02-03T02:43:59;7.10;;;5.40;;
7901;SDS011;3996;49.674;10.716;2023-02-03T02:46:33;11.07;;;6.00;;
7901;SDS011;3996;49.674;10.716;2023-02-03T02:52:07;8.43;;;6.40;;
7901;SDS011;3996;49.674;10.716;2023-02-03T02:54:36;10.30;;;5.70;;
7901;SDS011;3996;49.674;10.716;2023-02-03T02:57:05;9.37;;;5.47;;
7901;SDS011;3996;49.674;10.716;2023-02-03T02:59:35;11.47;;;5.70;;
7901;SDS011;3996;49.674;10.716;2023-02-03T03:02:01;11.03;;;5.73;;
7901;SDS011;3996;49.674;10.716;2023-02-03T03:04:28;8.07;;;5.17;;
7901;SDS011;3996;49.674;10.716;2023-02-03T03:07:00;10.20;;;5.73;;
7901;SDS011;3996;49.674;10.716;2023-02-03T03:09:37;8.50;;;6.17;;
7901;SDS011;3996;49.674;10.716;2023-02-03T03:12:18;7.47;;;5.33;;
7901;SDS011;3996;49.674;10.716;2023-02-03T03:14:46;7.07;;;6.00;;
7901;SDS011;3996;49.674;10.716;2023-02-03T03:17:16;8.70;;;6.10;;
7901;SDS011;3996;49.674;10.716;2023-02-03T03:19:54;7.67;;;5.70;;
7901;SDS011;3996;49.674;10.716;2023-02-03T03:22:23;8.30;;;5.33;;
7901;SDS011;3996;49.674;10.716;2023-02-03T03:25:02;8.57;;;5.80;;
7901;SDS011;3996;49.674;10.716;2023-02-03T03:27:34;9.00;;;5.53;;
7901;SDS011;3996;49.674;10.716;2023-02-03T03:30:36;8.47;;;5.73;;
7901;SDS011;3996;49.674;10.716;2023-02-03T03:32:59;7.57;;;5.30;;
7901;SDS011;3996;49.674;10.716;2023-02-03T03:35:27;6.00;;;4.70;;
7901;SDS011;3996;49.674;10.716;2023-02-03T03:38:16;8.27;;;5.37;;
7901;SDS011;3996;49.674;10.716;2023-02-03T03:40:52;7.13;;;5.97;;
7901;SDS011;3996;49.674;10.716;2023-02-03T03:43:27;7.67;;;5.20;;
7901;SDS011;3996;49.674;10.716;2023-02-03T03:46:00;6.30;;;5.40;;
7901;SDS011;3996;49.674;10.716;2023-02-03T03:48:38;6.87;;;5.30;;
7901;SDS011;3996;49.674;10.716;2023-02-03T03:51:27;8.37;;;5.23;;
7901;SDS011;3996;49.674;10.716;2023-02-03T03:54:10;8.07;;;5.37;;
7901;SDS011;3996;49.674;10.716;2023-02-03T03:56:40;10.17;;;5.30;;
7901;SDS011;3996;49.674;10.716;2023-02-03T03:59:15;5.63;;;4.83;;
7901;SDS011;3996;49.674;10.716;2023-02-03T04:01:45;6.67;;;4.50;;
7901;SDS011;3996;49.674;10.716;2023-02-03T04:04:12;10.03;;;4.87;;
7901;SDS011;3996;49.674;10.716;2023-02-03T04:06:40;7.63;;;5.07;;
7901;SDS011;3996;49.674;10.716;2023-02-03T04:09:05;7.33;;;4.83;;
7901;SDS011;3996;49.674;10.716;2023-02-03T04:11:31;5.63;;;4.40;;
7901;SDS011;3996;49.674;10.716;2023-02-03T04:14:15;6.73;;;4.47;;
7901;SDS011;3996;49.674;10.716;2023-02-03T04:16:41;5.23;;;3.90;;
7901;SDS011;3996;49.674;10.716;2023-02-03T04:19:06;5.73;;;4.40;;
7901;SDS011;3996;49.674;10.716;2023-02-03T04:21:32;6.53;;;4.10;;
7901;SDS011;3996;49.674;10.716;2023-02-03T04:23:57;6.63;;;4.00;;
7901;SDS011;3996;49.674;10.716;2023-02-03T04:26:23;5.87;;;4.07;;
7901;SDS011;3996;49.674;10.716;2023-02-03T04:28:48;4.67;;;3.83;;
7901;SDS011;3996;49.674;10.716;2023-02-03T04:31:15;5.77;;;3.63;;
7901;SDS011;3996;49.674;10.716;2023-02-03T04:33:40;6.37;;;4.00;;
7901;SDS011;3996;49.674;10.716;2023-02-03T04:36:06;6.80;;;4.10;;
7901;SDS011;3996;49.674;10.716;2023-02-03T04:38:32;5.10;;;3.77;;
7901;SDS011;3996;49.674;10.716;2023-02-03T04:40:58;4.70;;;3.67;;
7901;SDS011;3996;49.674;10.716;2023-02-03T04:43:24;3.63;;;3.33;;
7901;SDS011;3996;49.674;10.716;2023-02-03T04:45:49;5.57;;;3.30;;
7901;SDS011;3996;49.674;10.716;2023-02-03T04:48:15;5.57;;;3.53;;
7901;SDS011;3996;49.674;10.716;2023-02-03T04:50:40;4.27;;;3.30;;
7901;SDS011;3996;49.674;10.716;2023-02-03T04:53:06;6.60;;;3.23;;
7901;SDS011;3996;49.674;10.716;2023-02-03T04:55:31;4.47;;;3.10;;
7901;SDS011;3996;49.674;10.716;2023-02-03T04:57:58;3.07;;;2.73;;
7901;SDS011;3996;49.674;10.716;2023-02-03T05:00:25;3.30;;;3.00;;
7901;SDS011;3996;49.674;10.716;2023-02-03T05:02:51;3.33;;;3.03;;
7901;SDS011;3996;49.674;10.716;2023-02-03T05:05:17;2.97;;;2.63;;
7901;SDS011;3996;49.674;10.716;2023-02-03T05:07:42;3.20;;;2.63;;
7901;SDS011;3996;49.674;10.716;2023-02-03T05:10:08;2.73;;;2.53;;
7901;SDS011;3996;49.674;10.716;2023-02-03T05:12:34;3.77;;;2.60;;
7901;SDS011;3996;49.674;10.716;2023-02-03T05:14:59;5.73;;;2.87;;
7901;SDS011;3996;49.674;10.716;2023-02-03T05:17:25;3.83;;;2.73;;
7901;SDS011;3996;49.674;10.716;2023-02-03T05:19:50;5.23;;;2.53;;
7901;SDS011;3996;49.674;10.716;2023-02-03T05:22:16;3.97;;;2.97;;
7901;SDS011;3996;49.674;10.716;2023-02-03T05:24:42;5.17;;;2.80;;
7901;SDS011;3996;49.674;10.716;2023-02-03T05:27:07;5.37;;;3.30;;
7901;SDS011;3996;49.674;10.716;2023-02-03T05:29:33;3.70;;;2.53;;
7901;SDS011;3996;49.674;10.716;2023-02-03T05:31:58;3.60;;;2.60;;
7901;SDS011;3996;49.674;10.716;2023-02-03T05:34:24;4.00;;;2.33;;
7901;SDS011;3996;49.674;10.716;2023-02-03T05:36:49;3.20;;;2.60;;
7901;SDS011;3996;49.674;10.716;2023-02-03T05:39:15;4.27;;;2.73;;
7901;SDS011;3996;49.674;10.716;2023-02-03T05:41:41;3.37;;;2.50;;
7901;SDS011;3996;49.674;10.716;2023-02-03T05:44:19;3.20;;;2.60;;
7901;SDS011;3996;49.674;10.716;2023-02-03T05:46:49;3.60;;;2.47;;
7901;SDS011;3996;49.674;10.716;2023-02-03T05:49:16;5.63;;;2.90;;
7901;SDS011;3996;49.674;10.716;2023-02-03T05:51:43;2.90;;;2.60;;
7901;SDS011;3996;49.674;10.716;2023-02-03T05:54:09;2.93;;;2.60;;
7901;SDS011;3996;49.674;10.716;2023-02-03T05:56:34;3.50;;;2.80;;
7901;SDS011;3996;49.674;10.716;2023-02-03T05:59:00;3.17;;;2.43;;
7901;SDS011;3996;49.674;10.716;2023-02-03T06:01:26;3.07;;;2.50;;
7901;SDS011;3996;49.674;10.716;2023-02-03T06:03:52;3.10;;;2.80;;
7901;SDS011;3996;49.674;10.716;2023-02-03T06:06:17;2.97;;;2.60;;
7901;SDS011;3996;49.674;10.716;2023-02-03T06:08:43;2.97;;;2.33;;
7901;SDS011;3996;49.674;10.716;2023-02-03T06:11:09;3.17;;;2.70;;
7901;SDS011;3996;49.674;10.716;2023-02-03T06:13:35;2.90;;;2.20;;
7901;SDS011;3996;49.674;10.716;2023-02-03T06:16:01;3.33;;;2.70;;
7901;SDS011;3996;49.674;10.716;2023-02-03T06:18:26;2.33;;;2.13;;
7901;SDS011;3996;49.674;10.716;2023-02-03T06:20:52;2.63;;;2.17;;
7901;SDS011;3996;49.674;10.716;2023-02-03T06:23:18;2.40;;;2.20;;
7901;SDS011;3996;49.674;10.716;2023-02-03T06:25:47;2.20;;;2.00;;
7901;SDS011;3996;49.674;10.716;2023-02-03T06:28:13;2.37;;;1.80;;
7901;SDS011;3996;49.674;10.716;2023-02-03T06:30:39;2.20;;;2.00;;
7901;SDS011;3996;49.674;10.716;2023-02-03T06:33:05;2.43;;;2.00;;
7901;SDS011;3996;49.674;10.716;2023-02-03T06:35:30;3.07;;;1.90;;
7901;SDS011;3996;49.674;10.716;2023-02-03T06:37:56;2.13;;;1.93;;
7901;SDS011;3996;49.674;10.716;2023-02-03T06:40:21;4.50;;;2.40;;
7901;SDS011;3996;49.674;10.716;2023-02-03T06:42:47;4.07;;;2.40;;
7901;SDS011;3996;49.674;10.716;2023-02-03T06:45:14;2.43;;;2.23;;
7901;SDS011;3996;49.674;10.716;2023-02-03T06:47:41;3.70;;;2.40;;
7901;SDS011;3996;49.674;10.716;2023-02-03T06:50:08;3.23;;;2.60;;
7901;SDS011;3996;49.674;10.716;2023-02-03T06:52:37;3.77;;;2.87;;
7901;SDS011;3996;49.674;10.716;2023-02-03T06:55:03;3.20;;;2.90;;
7901;SDS011;3996;49.674;10.716;2023-02-03T06:57:30;3.60;;;2.70;;
7901;SDS011;3996;49.674;10.716;2023-02-03T06:59:56;6.37;;;3.00;;
7901;SDS011;3996;49.674;10.716;2023-02-03T07:02:22;3.90;;;3.00;;
7901;SDS011;3996;49.674;10.716;2023-02-03T07:04:48;9.23;;;4.67;;
7901;SDS011;3996;49.674;10.716;2023-02-03T07:07:13;42.60;;;17.80;;
7901;SDS011;3996;49.674;10.716;2023-02-03T07:09:39;21.30;;;10.40;;
7901;SDS011;3996;49.674;10.716;2023-02-03T07:12:05;7.93;;;5.17;;
7901;SDS011;3996;49.674;10.716;2023-02-03T07:14:31;4.93;;;3.60;;
7901;SDS011;3996;49.674;10.716;2023-02-03T07:17:00;3.80;;;3.40;;
7901;SDS011;3996;49.674;10.716;2023-02-03T07:19:26;4.13;;;2.73;;
7901;SDS011;3996;49.674;10.716;2023-02-03T07:21:51;3.13;;;2.83;;
7901;SDS011;3996;49.674;10.716;2023-02-03T07:24:17;3.63;;;3.00;;
7901;SDS011;3996;49.674;10.716;2023-02-03T07:26:42;3.10;;;2.80;;
7901;SDS011;3996;49.674;10.716;2023-02-03T07:29:08;3.03;;;2.70;;
7901;SDS011;3996;49.674;10.716;2023-02-03T07:31:33;4.30;;;3.30;;
7901;SDS011;3996;49.674;10.716;2023-02-03T07:33:59;5.53;;;3.80;;
7901;SDS011;3996;49.674;10.716;2023-02-03T07:36:26;6.27;;;3.80;;
7901;SDS011;3996;49.674;10.716;2023-02-03T07:38:52;7.17;;;4.33;;
7901;SDS011;3996;49.674;10.716;2023-02-03T07:41:18;4.07;;;3.63;;
7901;SDS011;3996;49.674;10.716;2023-02-03T07:43:44;5.50;;;3.60;;
7901;SDS011;3996;49.674;10.716;2023-02-03T07:46:09;5.50;;;3.30;;
7901;SDS011;3996;49.674;10.716;2023-02-03T07:48:35;5.60;;;3.87;;
7901;SDS011;3996;49.674;10.716;2023-02-03T07:51:00;6.87;;;4.03;;
7901;SDS011;3996;49.674;10.716;2023-02-03T07:53:26;5.03;;;3.60;;
7901;SDS011;3996;49.674;10.716;2023-02-03T07:55:52;4.90;;;3.37;;
7901;SDS011;3996;49.674;10.716;2023-02-03T07:58:17;4.43;;;3.50;;
7901;SDS011;3996;49.674;10.716;2023-02-03T08:00:43;6.37;;;3.47;;
7901;SDS011;3996;49.674;10.716;2023-02-03T08:03:09;4.80;;;3.70;;
7901;SDS011;3996;49.674;10.716;2023-02-03T08:05:34;5.60;;;3.47;;
7901;SDS011;3996;49.674;10.716;2023-02-03T08:08:00;5.13;;;3.67;;
7901;SDS011;3996;49.674;10.716;2023-02-03T08:10:26;5.37;;;4.27;;
7901;SDS011;3996;49.674;10.716;2023-02-03T08:12:55;6.17;;;3.63;;
7901;SDS011;3996;49.674;10.716;2023-02-03T08:15:20;4.20;;;3.63;;
7901;SDS011;3996;49.674;10.716;2023-02-03T08:17:49;3.30;;;3.00;;
7901;SDS011;3996;49.674;10.716;2023-02-03T08:20:14;5.00;;;4.00;;
7901;SDS011;3996;49.674;10.716;2023-02-03T08:22:40;4.27;;;3.60;;
7901;SDS011;3996;49.674;10.716;2023-02-03T08:25:07;3.43;;;3.13;;
7901;SDS011;3996;49.674;10.716;2023-02-03T08:27:33;5.57;;;4.20;;
7901;SDS011;3996;49.674;10.716;2023-02-03T08:29:58;4.83;;;3.80;;
7901;SDS011;3996;49.674;10.716;2023-02-03T08:32:24;5.73;;;3.57;;
7901;SDS011;3996;49.674;10.716;2023-02-03T08:34:50;4.23;;;3.30;;
7901;SDS011;3996;49.674;10.716;2023-02-03T08:37:18;5.23;;;3.70;;
7901;SDS011;3996;49.674;10.716;2023-02-03T08:39:46;4.43;;;3.30;;
7901;SDS011;3996;49.674;10.716;2023-02-03T08:42:12;4.17;;;3.37;;
7901;SDS011;3996;49.674;10.716;2023-02-03T08:44:38;5.33;;;3.67;;
7901;SDS011;3996;49.674;10.716;2023-02-03T08:47:03;10.27;;;4.20;;
7901;SDS011;3996;49.674;10.716;2023-02-03T08:49:30;7.47;;;3.83;;
7901;SDS011;3996;49.674;10.716;2023-02-03T08:51:56;4.77;;;3.47;;
7901;SDS011;3996;49.674;10.716;2023-02-03T08:54:23;5.17;;;3.57;;
7901;SDS011;3996;49.674;10.716;2023-02-03T08:56:49;6.17;;;3.90;;
7901;SDS011;3996;49.674;10.716;2023-02-03T08:59:15;4.97;;;3.83;;
7901;SDS011;3996;49.674;10.716;2023-02-03T09:01:41;4.10;;;3.33;;
7901;SDS011;3996;49.674;10.716;2023-02-03T09:04:12;7.30;;;4.17;;
7901;SDS011;3996;49.674;10.716;2023-02-03T09:06:41;4.83;;;3.83;;
7901;SDS011;3996;49.674;10.716;2023-02-03T09:09:06;5.20;;;4.10;;
7901;SDS011;3996;49.674;10.716;2023-02-03T09:11:32;4.47;;;3.70;;
7901;SDS011;3996;49.674;10.716;2023-02-03T09:13:57;5.27;;;4.50;;
7901;SDS011;3996;49.674;10.716;2023-02-03T09:16:23;7.03;;;4.07;;
7901;SDS011;3996;49.674;10.716;2023-02-03T09:18:49;6.63;;;3.80;;
7901;SDS011;3996;49.674;10.716;2023-02-03T09:21:15;7.50;;;4.40;;
7901;SDS011;3996;49.674;10.716;2023-02-03T09:23:42;9.57;;;4.63;;
7901;SDS011;3996;49.674;10.716;2023-02-03T09:26:09;7.67;;;4.10;;
7901;SDS011;3996;49.674;10.716;2023-02-03T09:28:37;5.40;;;3.57;;
7901;SDS011;3996;49.674;10.716;2023-02-03T09:31:03;4.37;;;3.83;;
7901;SDS011;3996;49.674;10.716;2023-02-03T09:33:34;4.00;;;3.50;;
7901;SDS011;3996;49.674;10.716;2023-02-03T09:36:00;5.07;;;3.40;;
7901;SDS011;3996;49.674;10.716;2023-02-03T09:38:27;5.53;;;3.47;;
7901;SDS011;3996;49.674;10.716;2023-02-03T09:40:56;5.27;;;3.60;;
7901;SDS011;3996;49.674;10.716;2023-02-03T09:46:05;4.73;;;3.60;;
7901;SDS011;3996;49.674;10.716;2023-02-03T09:48:36;6.20;;;3.90;;
7901;SDS011;3996;49.674;10.716;2023-02-03T09:51:12;13.60;;;6.23;;
7901;SDS011;3996;49.674;10.716;2023-02-03T09:53:46;4.30;;;3.37;;
7901;SDS011;3996;49.674;10.716;2023-02-03T09:56:19;4.87;;;3.40;;
7901;SDS011;3996;49.674;10.716;2023-02-03T09:58:50;5.53;;;3.33;;
7901;SDS011;3996;49.674;10.716;2023-02-03T10:01:16;6.57;;;3.30;;
7901;SDS011;3996;49.674;10.716;2023-02-03T10:04:30;4.00;;;2.87;;
7901;SDS011;3996;49.674;10.716;2023-02-03T10:06:52;5.17;;;3.00;;
7901;SDS011;3996;49.674;10.716;2023-02-03T10:17:52;6.07;;;3.37;;
7901;SDS011;3996;49.674;10.716;2023-02-03T10:22:57;4.23;;;2.40;;
7901;SDS011;3996;49.674;10.716;2023-02-03T10:28:16;4.67;;;2.50;;
7901;SDS011;3996;49.674;10.716;2023-02-03T10:30:47;3.20;;;2.40;;
7901;SDS011;3996;49.674;10.716;2023-02-03T10:33:23;4.13;;;2.50;;
7901;SDS011;3996;49.674;10.716;2023-02-03T10:36:03;6.13;;;2.47;;
7901;SDS011;3996;49.674;10.716;2023-02-03T10:41:15;2.93;;;2.30;;
7901;SDS011;3996;49.674;10.716;2023-02-03T10:43:43;3.43;;;2.30;;
7901;SDS011;3996;49.674;10.716;2023-02-03T10:46:15;3.73;;;2.53;;
7901;SDS011;3996;49.674;10.716;2023-02-03T10:48:42;3.37;;;2.30;;
7901;SDS011;3996;49.674;10.716;2023-02-03T10:51:14;4.23;;;2.30;;
7901;SDS011;3996;49.674;10.716;2023-02-03T10:53:44;3.63;;;2.60;;
7901;SDS011;3996;49.674;10.716;2023-02-03T10:56:11;5.13;;;2.87;;
7901;SDS011;3996;49.674;10.716;2023-02-03T10:58:40;2.53;;;2.33;;
7901;SDS011;3996;49.674;10.716;2023-02-03T11:01:16;2.57;;;2.10;;
7901;SDS011;3996;49.674;10.716;2023-02-03T11:03:53;2.10;;;1.90;;
7901;SDS011;3996;49.674;10.716;2023-02-03T11:06:28;4.27;;;2.70;;
7901;SDS011;3996;49.674;10.716;2023-02-03T11:08:54;4.27;;;2.40;;
7901;SDS011;3996;49.674;10.716;2023-02-03T11:11:21;2.93;;;2.07;;
7901;SDS011;3996;49.674;10.716;2023-02-03T11:16:27;3.07;;;1.90;;
7901;SDS011;3996;49.674;10.716;2023-02-03T11:19:03;3.37;;;1.80;;
7901;SDS011;3996;49.674;10.716;2023-02-03T11:21:47;2.77;;;1.90;;
7901;SDS011;3996;49.674;10.716;2023-02-03T11:24:25;2.47;;;1.83;;
7901;SDS011;3996;49.674;10.716;2023-02-03T11:29:31;3.10;;;2.10;;
7901;SDS011;3996;49.674;10.716;2023-02-03T11:31:59;3.07;;;2.20;;
7901;SDS011;3996;49.674;10.716;2023-02-03T11:34:48;2.93;;;2.30;;
7901;SDS011;3996;49.674;10.716;2023-02-03T11:42:31;5.30;;;2.07;;
7901;SDS011;3996;49.674;10.716;2023-02-03T11:45:14;2.83;;;2.13;;
7901;SDS011;3996;49.674;10.716;2023-02-03T11:53:38;3.50;;;2.40;;
7901;SDS011;3996;49.674;10.716;2023-02-03T11:56:25;4.43;;;2.50;;
7901;SDS011;3996;49.674;10.716;2023-02-03T11:59:18;4.93;;;2.40;;
7901;SDS011;3996;49.674;10.716;2023-02-03T12:10:07;3.57;;;2.10;;
7901;SDS011;3996;49.674;10.716;2023-02-03T12:12:39;3.97;;;2.43;;
7901;SDS011;3996;49.674;10.716;2023-02-03T12:26:29;3.17;;;1.80;;
7901;SDS011;3996;49.674;10.716;2023-02-03T12:29:08;1.93;;;1.40;;
7901;SDS011;3996;49.674;10.716;2023-02-03T12:31:48;3.27;;;1.50;;
7901;SDS011;3996;49.674;10.716;2023-02-03T12:34:23;1.97;;;1.70;;
7901;SDS011;3996;49.674;10.716;2023-02-03T12:37:07;2.80;;;2.00;;
7901;SDS011;3996;49.674;10.716;2023-02-03T12:44:54;3.83;;;1.73;;
7901;SDS011;3996;49.674;10.716;2023-02-03T12:52:54;3.60;;;2.10;;
7901;SDS011;3996;49.674;10.716;2023-02-03T12:55:29;2.77;;;1.63;;
7901;SDS011;3996;49.674;10.716;2023-02-03T12:58:09;2.07;;;1.73;;
7901;SDS011;3996;49.674;10.716;2023-02-03T13:00:46;2.60;;;1.60;;
7901;SDS011;3996;49.674;10.716;2023-02-03T13:03:26;3.10;;;1.70;;
7901;SDS011;3996;49.674;10.716;2023-02-03T13:06:26;2.87;;;2.00;;
7901;SDS011;3996;49.674;10.716;2023-02-03T13:14:36;2.10;;;1.33;;
7901;SDS011;3996;49.674;10.716;2023-02-03T13:17:16;2.83;;;1.80;;
7901;SDS011;3996;49.674;10.716;2023-02-03T13:19:50;2.50;;;1.70;;
7901;SDS011;3996;49.674;10.716;2023-02-03T13:22:20;3.00;;;1.40;;
7901;SDS011;3996;49.674;10.716;2023-02-03T13:24:51;2.27;;;1.70;;
7901;SDS011;3996;49.674;10.716;2023-02-03T13:27:45;1.93;;;1.30;;
7901;SDS011;3996;49.674;10.716;2023-02-03T13:42:24;2.03;;;1.80;;
7901;SDS011;3996;49.674;10.716;2023-02-03T13:44:54;2.83;;;1.57;;
7901;SDS011;3996;49.674;10.716;2023-02-03T13:47:24;1.70;;;1.50;;
7901;SDS011;3996;49.674;10.716;2023-02-03T13:49:57;1.60;;;1.50;;
7901;SDS011;3996;49.674;10.716;2023-02-03T13:52:46;2.27;;;1.50;;
7901;SDS011;3996;49.674;10.716;2023-02-03T13:57:50;3.03;;;1.50;;
7901;SDS011;3996;49.674;10.716;2023-02-03T14:05:51;2.53;;;1.50;;
7901;SDS011;3996;49.674;10.716;2023-02-03T14:19:03;1.73;;;1.10;;
7901;SDS011;3996;49.674;10.716;2023-02-03T14:21:41;0.80;;;0.80;;
7901;SDS011;3996;49.674;10.716;2023-02-03T14:24:37;0.90;;;0.90;;
7901;SDS011;3996;49.674;10.716;2023-02-03T14:27:16;0.93;;;0.90;;
7901;SDS011;3996;49.674;10.716;2023-02-03T14:29:45;1.10;;;0.90;;
7901;SDS011;3996;49.674;10.716;2023-02-03T14:35:18;1.30;;;1.10;;
7901;SDS011;3996;49.674;10.716;2023-02-03T14:37:50;1.47;;;1.00;;
7901;SDS011;3996;49.674;10.716;2023-02-03T14:45:37;1.20;;;1.10;;
7901;SDS011;3996;49.674;10.716;2023-02-03T14:59:27;0.90;;;0.90;;
7901;SDS011;3996;49.674;10.716;2023-02-03T15:04:26;1.00;;;0.90;;
7901;SDS011;3996;49.674;10.716;2023-02-03T15:06:52;1.17;;;1.07;;
7901;SDS011;3996;49.674;10.716;2023-02-03T15:09:21;1.13;;;0.90;;
7901;SDS011;3996;49.674;10.716;2023-02-03T15:12:16;2.00;;;1.10;;
7901;SDS011;3996;49.674;10.716;2023-02-03T15:14:43;1.53;;;1.40;;
7901;SDS011;3996;49.674;10.716;2023-02-03T15:17:11;1.30;;;1.20;;
7901;SDS011;3996;49.674;10.716;2023-02-03T15:19:48;1.20;;;1.10;;
7901;SDS011;3996;49.674;10.716;2023-02-03T15:24:46;2.00;;;1.20;;
7901;SDS011;3996;49.674;10.716;2023-02-03T15:27:22;1.10;;;1.00;;
7901;SDS011;3996;49.674;10.716;2023-02-03T15:29:57;0.87;;;0.87;;
7901;SDS011;3996;49.674;10.716;2023-02-03T15:32:38;1.23;;;0.90;;
7901;SDS011;3996;49.674;10.716;2023-02-03T15:35:11;10.93;;;7.40;;
7901;SDS011;3996;49.674;10.716;2023-02-03T15:37:42;8.97;;;5.43;;
7901;SDS011;3996;49.674;10.716;2023-02-03T15:40:22;3.90;;;3.20;;
7901;SDS011;3996;49.674;10.716;2023-02-03T15:42:57;47.00;;;15.27;;
7901;SDS011;3996;49.674;10.716;2023-02-03T15:45:34;21.70;;;9.27;;
7901;SDS011;3996;49.674;10.716;2023-02-03T15:50:36;6.30;;;3.77;;
7901;SDS011;3996;49.674;10.716;2023-02-03T15:53:22;5.57;;;3.93;;
7901;SDS011;3996;49.674;10.716;2023-02-03T15:55:53;3.30;;;2.10;;
7901;SDS011;3996;49.674;10.716;2023-02-03T15:58:24;2.10;;;1.30;;
7901;SDS011;3996;49.674;10.716;2023-02-03T16:00:54;1.67;;;1.57;;
7901;SDS011;3996;49.674;10.716;2023-02-03T16:05:56;2.07;;;1.20;;
7901;SDS011;3996;49.674;10.716;2023-02-03T16:08:41;1.20;;;1.10;;
7901;SDS011;3996;49.674;10.716;2023-02-03T16:13:58;1.20;;;1.10;;
7901;SDS011;3996;49.674;10.716;2023-02-03T16:16:27;2.30;;;1.40;;
7901;SDS011;3996;49.674;10.716;2023-02-03T16:19:01;1.23;;;1.13;;
7901;SDS011;3996;49.674;10.716;2023-02-03T16:21:30;1.40;;;1.30;;
7901;SDS011;3996;49.674;10.716;2023-02-03T16:24:01;1.30;;;1.20;;
7901;SDS011;3996;49.674;10.716;2023-02-03T16:26:29;1.27;;;1.17;;
7901;SDS011;3996;49.674;10.716;2023-02-03T16:31:52;1.47;;;1.30;;
7901;SDS011;3996;49.674;10.716;2023-02-03T16:34:37;1.30;;;1.20;;
7901;SDS011;3996;49.674;10.716;2023-02-03T16:37:25;1.50;;;1.40;;
7901;SDS011;3996;49.674;10.716;2023-02-03T16:40:19;2.07;;;1.37;;
7901;SDS011;3996;49.674;10.716;2023-02-03T16:43:13;1.73;;;1.50;;
7901;SDS011;3996;49.674;10.716;2023-02-03T16:45:58;2.27;;;1.90;;
7901;SDS011;3996;49.674;10.716;2023-02-03T16:48:43;1.57;;;1.47;;
7901;SDS011;3996;49.674;10.716;2023-02-03T16:51:39;2.87;;;1.60;;
7901;SDS011;3996;49.674;10.716;2023-02-03T16:54:08;2.20;;;2.00;;
7901;SDS011;3996;49.674;10.716;2023-02-03T16:56:36;1.50;;;1.40;;
7901;SDS011;3996;49.674;10.716;2023-02-03T16:59:02;2.50;;;2.00;;
7901;SDS011;3996;49.674;10.716;2023-02-03T17:01:28;1.90;;;1.80;;
7901;SDS011;3996;49.674;10.716;2023-02-03T17:03:53;1.93;;;1.80;;
7901;SDS011;3996;49.674;10.716;2023-02-03T17:06:19;2.17;;;1.97;;
7901;SDS011;3996;49.674;10.716;2023-02-03T17:08:45;2.47;;;2.27;;
7901;SDS011;3996;49.674;10.716;2023-02-03T17:11:17;2.10;;;1.90;;
7901;SDS011;3996;49.674;10.716;2023-02-03T17:13:45;2.33;;;2.13;;
7901;SDS011;3996;49.674;10.716;2023-02-03T17:16:13;2.30;;;2.10;;
7901;SDS011;3996;49.674;10.716;2023-02-03T17:18:41;2.40;;;2.20;;
7901;SDS011;3996;49.674;10.716;2023-02-03T17:21:08;3.57;;;2.70;;
7901;SDS011;3996;49.674;10.716;2023-02-03T17:23:35;2.30;;;2.10;;
7901;SDS011;3996;49.674;10.716;2023-02-03T17:26:01;2.40;;;2.20;;
7901;SDS011;3996;49.674;10.716;2023-02-03T17:28:28;2.43;;;2.23;;
7901;SDS011;3996;49.674;10.716;2023-02-03T17:30:54;2.20;;;2.00;;
7901;SDS011;3996;49.674;10.716;2023-02-03T17:33:24;2.40;;;2.10;;
7901;SDS011;3996;49.674;10.716;2023-02-03T17:35:58;4.30;;;2.13;;
7901;SDS011;3996;49.674;10.716;2023-02-03T17:38:38;2.30;;;2.10;;
7901;SDS011;3996;49.674;10.716;2023-02-03T17:41:09;2.03;;;1.93;;
7901;SDS011;3996;49.674;10.716;2023-02-03T17:43:35;3.73;;;1.97;;
7901;SDS011;3996;49.674;10.716;2023-02-03T17:46:01;2.37;;;2.10;;
7901;SDS011;3996;49.674;10.716;2023-02-03T17:48:27;3.43;;;2.53;;
7901;SDS011;3996;49.674;10.716;2023-02-03T17:50:52;2.53;;;2.33;;
7901;SDS011;3996;49.674;10.716;2023-02-03T17:53:18;3.60;;;2.47;;
7901;SDS011;3996;49.674;10.716;2023-02-03T17:55:43;3.30;;;2.40;;